Time;durP1;ratioP1;P1;durP2;ratioP2;P2;SDS_P1;SDS_P2;PMS_P1;PMS_P2;Temp;Humidity;BMP_temperature;BMP_pressure;BME280_temperature;BME280_humidity;BME280_pressure;Samples;Min_cycle;Max_cycle;Signal;HPM_P1;HPM_P2
2022/06/29 00:00:49;;;;;;;1.50;0.80;;;16.20;99.90;;;;;;4995000;28;20651;-81
2022/06/29 00:03:15;;;;;;;2.73;0.90;;;16.10;99.90;;;;;;4994240;28;20448;-82
2022/06/29 00:05:40;;;;;;;1.13;0.90;;;16.10;99.90;;;;;;4994832;28;20511;-82
2022/06/29 00:08:06;;;;;;;3.30;0.90;;;16.10;99.90;;;;;;4994937;28;20185;-81
2022/06/29 00:10:32;;;;;;;3.97;1.60;;;16.00;99.90;;;;;;4994899;28;20188;-81
2022/06/29 00:12:57;;;;;;;2.20;0.70;;;16.00;99.90;;;;;;4994503;28;20188;-82
2022/06/29 00:15:23;;;;;;;2.60;1.00;;;16.00;99.90;;;;;;4994792;28;20201;-82
2022/06/29 00:17:49;;;;;;;1.60;1.00;;;16.00;99.90;;;;;;4994768;28;20182;-82
2022/06/29 00:20:15;;;;;;;3.10;1.53;;;16.00;99.90;;;;;;4994758;28;20687;-82
2022/06/29 00:22:42;;;;;;;3.27;1.30;;;16.10;99.90;;;;;;4994603;28;20423;-82
2022/06/29 00:25:08;;;;;;;1.83;1.00;;;16.20;99.90;;;;;;4994560;28;20468;-82
2022/06/29 00:27:34;;;;;;;2.37;1.17;;;16.10;99.90;;;;;;4994129;28;20470;-82
2022/06/29 00:30:00;;;;;;;1.23;0.80;;;16.00;99.90;;;;;;4994525;28;20512;-83
2022/06/29 00:32:25;;;;;;;2.03;0.73;;;16.00;99.90;;;;;;4994478;28;20877;-83
2022/06/29 00:34:51;;;;;;;2.27;0.93;;;15.90;99.90;;;;;;4994460;28;20674;-83
2022/06/29 00:37:17;;;;;;;1.47;0.77;;;15.90;99.90;;;;;;4994375;28;20177;-83
2022/06/29 00:39:42;;;;;;;1.43;0.77;;;15.90;99.90;;;;;;4994226;28;20220;-83
2022/06/29 00:42:08;;;;;;;1.80;0.60;;;15.80;99.90;;;;;;4993944;28;20167;-83
2022/06/29 00:44:33;;;;;;;1.50;0.90;;;15.70;99.90;;;;;;4994134;28;20208;-83
2022/06/29 00:47:07;;;;;;;2.23;0.60;;;15.70;99.90;;;;;;4994252;28;20172;-83
2022/06/29 00:49:33;;;;;;;2.27;0.97;;;15.60;99.90;;;;;;4994243;28;20179;-83
2022/06/29 00:52:04;;;;;;;1.00;0.90;;;15.70;99.90;;;;;;4992915;28;20427;-83
2022/06/29 00:54:40;;;;;;;1.90;0.60;;;15.50;99.90;;;;;;4992889;28;20821;-82
2022/06/29 00:57:13;;;;;;;1.97;0.77;;;15.60;99.90;;;;;;4993737;28;20409;-83
2022/06/29 00:59:43;;;;;;;1.20;0.60;;;15.60;99.90;;;;;;4994031;28;20432;-83
2022/06/29 01:02:08;;;;;;;1.13;0.70;;;15.50;99.90;;;;;;4994049;28;20467;-82
2022/06/29 01:04:34;;;;;;;2.13;0.80;;;15.50;99.90;;;;;;4993879;28;20883;-82
2022/06/29 01:06:59;;;;;;;1.63;1.07;;;15.60;99.90;;;;;;4993932;28;20199;-82
2022/06/29 01:09:25;;;;;;;2.50;0.83;;;15.60;99.90;;;;;;4993921;28;20522;-84
2022/06/29 01:11:51;;;;;;;2.87;1.10;;;15.60;99.90;;;;;;4993965;28;20175;-82
2022/06/29 01:14:16;;;;;;;2.17;0.67;;;15.60;99.90;;;;;;4993431;28;20255;-83
2022/06/29 01:16:42;;;;;;;2.60;0.97;;;15.60;99.90;;;;;;4993636;28;20198;-82
2022/06/29 01:19:08;;;;;;;1.73;0.80;;;15.50;99.90;;;;;;4993825;28;20700;-83
2022/06/29 01:21:35;;;;;;;0.80;0.63;;;15.50;99.90;;;;;;4993705;28;20749;-83
2022/06/29 01:24:02;;;;;;;1.40;0.70;;;15.60;99.90;;;;;;4993696;28;20208;-83
2022/06/29 01:26:28;;;;;;;2.80;1.00;;;15.60;99.90;;;;;;4993547;28;21005;-83
2022/06/29 01:28:53;;;;;;;1.80;0.80;;;15.60;99.90;;;;;;4993187;28;20506;-83
2022/06/29 01:31:19;;;;;;;1.30;0.80;;;15.50;99.90;;;;;;4993609;28;20516;-82
2022/06/29 01:33:47;;;;;;;4.40;0.73;;;15.50;99.90;;;;;;4993684;28;20177;-82
2022/06/29 01:36:14;;;;;;;1.10;0.60;;;15.60;99.90;;;;;;4993687;28;20424;-82
2022/06/29 01:38:40;;;;;;;1.70;0.83;;;15.50;99.90;;;;;;4993420;28;20551;-82
2022/06/29 01:41:08;;;;;;;1.90;1.43;;;15.50;99.90;;;;;;4993520;28;20416;-82
2022/06/29 01:43:34;;;;;;;1.33;0.70;;;15.60;99.90;;;;;;4991780;28;21011;-82
2022/06/29 01:46:01;;;;;;;1.73;0.67;;;15.60;99.90;;;;;;4993589;28;20428;-82
2022/06/29 01:48:26;;;;;;;2.13;0.60;;;15.60;99.90;;;;;;4993518;28;20420;-82
2022/06/29 01:50:52;;;;;;;1.47;0.80;;;15.70;99.90;;;;;;4993491;28;20928;-82
2022/06/29 01:53:18;;;;;;;1.23;0.70;;;15.80;99.90;;;;;;4993454;28;20231;-82
2022/06/29 01:55:44;;;;;;;1.93;0.70;;;15.80;99.90;;;;;;4993450;28;20629;-82
2022/06/29 01:58:10;;;;;;;1.50;0.53;;;16.10;24.30;;;;;;4992979;28;20176;-82
2022/06/29 02:00:35;;;;;;;4.27;0.77;;;16.00;64.20;;;;;;4993468;28;20515;-82
2022/06/29 02:03:01;;;;;;;1.77;0.70;;;16.00;37.10;;;;;;4993463;28;20172;-82
2022/06/29 02:05:27;;;;;;;1.70;0.50;;;15.90;83.30;;;;;;4993324;28;20213;-82
2022/06/29 02:07:52;;;;;;;2.33;0.67;;;15.90;99.90;;;;;;4993390;28;20653;-82
2022/06/29 02:10:18;;;;;;;1.60;1.27;;;15.80;99.90;;;;;;4993361;28;20212;-82
2022/06/29 02:12:43;;;;;;;2.03;0.97;;;15.70;99.90;;;;;;4992892;28;20172;-82
2022/06/29 02:15:09;;;;;;;1.30;0.40;;;15.70;99.90;;;;;;4993288;28;20178;-81
2022/06/29 02:17:35;;;;;;;1.67;0.73;;;15.70;99.90;;;;;;4993183;28;20537;-82
2022/06/29 02:20:00;;;;;;;3.20;0.60;;;15.60;99.90;;;;;;4993285;28;20534;-82
2022/06/29 02:22:26;;;;;;;1.30;0.77;;;15.60;99.90;;;;;;4993215;28;20183;-82
2022/06/29 02:24:52;;;;;;;1.57;0.50;;;15.50;99.90;;;;;;4993169;28;20219;-82
2022/06/29 02:27:17;;;;;;;1.90;0.50;;;15.30;99.90;;;;;;4994049;28;20172;-81
2022/06/29 02:29:42;;;;;;;3.80;0.80;;;15.30;99.90;;;;;;4996942;28;20413;-82
2022/06/29 02:34:52;;;;;;;2.23;0.60;;;15.20;99.90;;;;;;4996707;28;20202;-82
2022/06/29 02:37:18;;;;;;;2.90;0.93;;;15.20;99.90;;;;;;4996641;28;20410;-84
2022/06/29 02:39:44;;;;;;;1.20;0.40;;;15.20;99.90;;;;;;4996519;28;20259;-84
2022/06/29 02:42:13;;;;;;;1.33;0.70;;;15.20;99.90;;;;;;4996236;28;20247;-83
2022/06/29 02:44:39;;;;;;;1.17;0.30;;;15.20;99.90;;;;;;4996502;28;20230;-82
2022/06/29 02:47:05;;;;;;;1.20;0.53;;;15.10;99.90;;;;;;4995182;28;20416;-82
2022/06/29 02:49:31;;;;;;;1.33;0.67;;;15.10;99.90;;;;;;4996389;28;20430;-82
2022/06/29 02:51:56;;;;;;;1.10;0.47;;;15.00;99.90;;;;;;4996336;28;20984;-82
2022/06/29 02:54:22;;;;;;;1.20;0.50;;;15.00;99.90;;;;;;4995036;28;20168;-82
2022/06/29 02:56:48;;;;;;;1.30;0.63;;;15.00;99.90;;;;;;4995922;28;20625;-82
2022/06/29 02:59:13;;;;;;;1.63;0.97;;;15.00;99.90;;;;;;4996274;28;20267;-83
2022/06/29 03:01:39;;;;;;;2.20;1.40;;;15.00;99.90;;;;;;4996199;28;20230;-82
2022/06/29 03:04:04;;;;;;;2.70;0.50;;;14.90;99.90;;;;;;4996100;28;20567;-82
2022/06/29 03:06:30;;;;;;;1.93;0.53;;;14.90;99.90;;;;;;4994824;28;20264;-82
2022/06/29 03:08:55;;;;;;;1.97;1.70;;;15.00;99.90;;;;;;4996059;28;20231;-82
2022/06/29 03:11:21;;;;;;;1.70;0.50;;;14.90;99.90;;;;;;4996016;28;20180;-82
2022/06/29 03:13:46;;;;;;;1.57;0.80;;;14.90;99.90;;;;;;4995705;28;20199;-83
2022/06/29 03:16:12;;;;;;;1.43;0.80;;;14.90;99.90;;;;;;4994708;28;20230;-83
2022/06/29 03:18:37;;;;;;;2.77;0.63;;;14.90;99.90;;;;;;4995887;28;20645;-83
2022/06/29 03:21:03;;;;;;;1.10;0.90;;;14.90;99.90;;;;;;4995751;28;20175;-83
2022/06/29 03:23:28;;;;;;;1.47;0.80;;;14.90;99.90;;;;;;4995598;28;20200;-83
2022/06/29 03:25:54;;;;;;;1.77;0.90;;;15.00;99.90;;;;;;4995380;28;20185;-83
2022/06/29 03:28:19;;;;;;;5.97;1.03;;;15.10;99.90;;;;;;4993912;28;20206;-83
2022/06/29 03:30:45;;;;;;;1.53;0.87;;;15.10;99.90;;;;;;4994328;28;20181;-83
2022/06/29 03:33:10;;;;;;;1.10;0.60;;;15.20;99.90;;;;;;4994310;28;20179;-83
2022/06/29 03:35:36;;;;;;;1.33;0.80;;;15.30;99.90;;;;;;4993644;28;20181;-83
2022/06/29 03:38:01;;;;;;;2.17;0.60;;;15.40;99.90;;;;;;4994664;28;20176;-83
2022/06/29 03:40:27;;;;;;;2.40;0.60;;;15.40;99.90;;;;;;4994549;28;20230;-83
2022/06/29 03:42:54;;;;;;;0.87;0.30;;;15.50;99.90;;;;;;4993104;28;20267;-82
2022/06/29 03:45:19;;;;;;;1.50;0.57;;;15.60;99.90;;;;;;4995307;28;20216;-82
2022/06/29 03:47:45;;;;;;;1.50;0.50;;;15.70;55.70;;;;;;4995381;28;20412;-82
2022/06/29 03:50:11;;;;;;;3.43;0.73;;;15.80;26.80;;;;;;4995359;28;20176;-82
2022/06/29 03:52:37;;;;;;;2.53;0.60;;;15.90;1.00;;;;;;4995343;28;20257;-83
2022/06/29 03:55:03;;;;;;;1.00;0.47;;;16.00;1.00;;;;;;4994008;28;20601;-82
2022/06/29 03:57:29;;;;;;;1.73;0.47;;;16.10;1.00;;;;;;4994732;28;20420;-82
2022/06/29 03:59:55;;;;;;;0.93;0.50;;;;;;;;;;4993949;28;20416;-82
2022/06/29 04:02:20;;;;;;;0.90;0.67;;;16.20;1.00;;;;;;4993885;28;20612;-82
2022/06/29 04:04:46;;;;;;;1.27;0.60;;;16.20;1.00;;;;;;4994945;28;20499;-82
2022/06/29 04:07:11;;;;;;;1.40;0.60;;;16.20;1.00;;;;;;4994960;28;20175;-82
2022/06/29 04:09:37;;;;;;;1.00;0.40;;;16.20;1.00;;;;;;4994919;28;20169;-82
2022/06/29 04:12:03;;;;;;;2.43;0.67;;;16.30;1.00;;;;;;4994504;28;20169;-82
2022/06/29 04:14:28;;;;;;;1.07;0.20;;;16.30;1.00;;;;;;4994889;28;20177;-82
2022/06/29 04:16:56;;;;;;;2.87;0.80;;;16.30;1.00;;;;;;4994774;28;20926;-82
2022/06/29 04:19:22;;;;;;;2.00;0.67;;;16.40;1.00;;;;;;4994737;28;20642;-82
2022/06/29 04:21:48;;;;;;;0.97;0.20;;;16.40;1.00;;;;;;4993430;28;20510;-82
2022/06/29 04:24:15;;;;;;;1.03;0.43;;;16.60;1.00;;;;;;4994573;28;20562;-83
2022/06/29 04:26:40;;;;;;;2.47;0.40;;;16.60;99.90;;;;;;4994215;28;21025;-82
2022/06/29 04:29:06;;;;;;;2.40;0.70;;;16.60;1.00;;;;;;4994553;28;20512;-82
2022/06/29 04:31:33;;;;;;;1.13;0.50;;;16.60;99.90;;;;;;4994522;28;20534;-83
2022/06/29 04:33:59;;;;;;;0.87;0.37;;;16.70;99.90;;;;;;4994464;28;20170;-82
2022/06/29 04:36:24;;;;;;;1.87;0.73;;;16.60;99.90;;;;;;4994393;28;20505;-82
2022/06/29 04:38:52;;;;;;;1.37;0.80;;;16.60;1.00;;;;;;4994089;28;20807;-82
2022/06/29 04:41:19;;;;;;;2.47;0.57;;;16.60;99.90;;;;;;4994355;28;20786;-82
2022/06/29 04:43:45;;;;;;;1.20;0.57;;;16.70;1.00;;;;;;4993916;28;20490;-83
2022/06/29 04:46:19;;;;;;;1.27;0.60;;;16.80;99.90;;;;;;4994259;28;20464;-82
2022/06/29 04:48:55;;;;;;;2.20;0.67;;;16.80;99.90;;;;;;4994226;28;20170;-83
2022/06/29 04:51:21;;;;;;;1.57;0.43;;;16.90;99.20;;;;;;4993692;28;20421;-82
2022/06/29 04:53:47;;;;;;;2.90;0.40;;;16.90;99.90;;;;;;4994154;28;20422;-84
2022/06/29 04:56:13;;;;;;;1.60;0.50;;;17.00;1.00;;;;;;4994063;28;20421;-84
2022/06/29 04:58:39;;;;;;;4.50;0.90;;;17.10;72.90;;;;;;4993610;28;20988;-83
2022/06/29 05:01:05;;;;;;;2.00;0.33;;;17.10;99.90;;;;;;4994002;28;20521;-84
2022/06/29 05:03:31;;;;;;;0.60;0.30;;;17.20;1.00;;;;;;4993936;28;20711;-84
2022/06/29 05:05:56;;;;;;;1.57;0.30;;;17.30;1.00;;;;;;4993930;28;20204;-84
2022/06/29 05:08:22;;;;;;;2.30;1.10;;;17.40;1.00;;;;;;4992731;28;20181;-84
2022/06/29 05:10:47;;;;;;;1.23;0.63;;;17.50;1.00;;;;;;4992616;28;20687;-85
2022/06/29 05:13:13;;;;;;;3.47;0.80;;;17.60;99.90;;;;;;4993502;28;20177;-84
2022/06/29 05:15:38;;;;;;;1.77;0.53;;;17.60;1.00;;;;;;4993741;28;20183;-84
2022/06/29 05:18:04;;;;;;;1.43;0.60;;;17.70;99.90;;;;;;4993734;28;20638;-83
2022/06/29 05:20:30;;;;;;;2.50;0.40;;;17.80;1.00;;;;;;4993621;28;20180;-83
2022/06/29 05:22:56;;;;;;;3.30;0.60;;;17.90;1.00;;;;;;4993647;28;20439;-84
2022/06/29 05:25:22;;;;;;;2.50;0.80;;;18.00;99.90;;;;;;4993691;28;20210;-83
2022/06/29 05:27:48;;;;;;;1.30;0.40;;;18.10;99.90;;;;;;4993319;28;20419;-84
2022/06/29 05:30:14;;;;;;;2.50;0.43;;;18.20;9.10;;;;;;4993636;28;20576;-84
2022/06/29 05:32:40;;;;;;;2.10;0.30;;;18.40;1.00;;;;;;4993600;28;20442;-84
2022/06/29 05:35:07;;;;;;;1.57;0.47;;;18.50;1.00;;;;;;4993523;28;20419;-84
2022/06/29 05:37:32;;;;;;;1.50;0.47;;;18.80;54.00;;;;;;4993610;28;20408;-84
2022/06/29 05:39:58;;;;;;;0.90;0.30;;;18.80;99.90;;;;;;4993363;28;20527;-84
2022/06/29 05:42:23;;;;;;;1.17;0.50;;;19.10;1.00;;;;;;4993196;28;20169;-84
2022/06/29 05:44:49;;;;;;;2.57;0.50;;;19.20;99.90;;;;;;4993318;28;20298;-85
2022/06/29 05:47:15;;;;;;;3.80;2.10;;;19.40;99.90;;;;;;4993512;28;20172;-84
2022/06/29 05:49:41;;;;;;;1.53;0.20;;;19.60;45.00;;;;;;4993489;28;20582;-84
2022/06/29 05:52:07;;;;;;;1.00;0.47;;;19.80;1.00;;;;;;4993824;28;20182;-85
2022/06/29 05:54:33;;;;;;;1.27;0.30;;;19.90;1.00;;;;;;4994104;28;20517;-85
2022/06/29 05:56:58;;;;;;;1.77;0.40;;;20.00;1.00;;;;;;4993101;28;20417;-85
2022/06/29 05:59:24;;;;;;;3.43;0.60;;;20.40;1.00;;;;;;4993394;28;20189;-85
2022/06/29 06:01:49;;;;;;;1.43;0.50;;;20.60;99.90;;;;;;4994006;28;20171;-84
2022/06/29 06:04:15;;;;;;;2.00;0.77;;;20.70;99.90;;;;;;4997152;28;20305;-84
2022/06/29 06:06:40;;;;;;;1.57;0.50;;;20.80;99.90;;;;;;4997212;28;20533;-84
2022/06/29 06:09:06;;;;;;;0.70;0.33;;;20.90;99.90;;;;;;4997217;28;20174;-84
2022/06/29 06:11:31;;;;;;;0.73;0.40;;;20.80;99.90;;;;;;4995495;28;20175;-85
2022/06/29 06:13:57;;;;;;;1.20;0.43;;;20.70;1.00;;;;;;4997052;28;20532;-85
2022/06/29 06:16:22;;;;;;;1.30;0.40;;;20.70;1.00;;;;;;4996954;28;20189;-83
2022/06/29 06:18:48;;;;;;;1.50;0.50;;;20.80;1.00;;;;;;4995725;28;20181;-85
2022/06/29 06:21:16;;;;;;;2.30;2.00;;;20.60;1.00;;;;;;4996846;28;20183;-84
2022/06/29 06:23:42;;;;;;;1.17;0.30;;;20.70;1.00;;;;;;4995667;28;20209;-85
2022/06/29 06:26:07;;;;;;;4.30;0.53;;;21.00;1.00;;;;;;4996577;28;20423;-84
2022/06/29 06:28:33;;;;;;;0.97;0.40;;;21.20;1.00;;;;;;4995607;28;20180;-85
2022/06/29 06:30:58;;;;;;;2.57;1.17;;;21.20;1.00;;;;;;4996694;28;20262;-85
2022/06/29 06:33:24;;;;;;;1.57;0.43;;;21.30;1.00;;;;;;4996736;28;20527;-83
2022/06/29 06:35:49;;;;;;;1.90;0.43;;;21.70;1.00;;;;;;4996696;28;20174;-84
2022/06/29 06:38:15;;;;;;;2.77;0.57;;;21.90;99.90;;;;;;4996657;28;20207;-84
2022/06/29 06:43:28;;;;;;;0.80;0.23;;;21.90;99.90;;;;;;4996596;28;20449;-85
2022/06/29 06:45:54;;;;;;;2.53;0.60;;;21.60;99.90;;;;;;4996568;28;20458;-85
2022/06/29 06:48:19;;;;;;;1.07;0.40;;;21.40;1.00;;;;;;4996504;28;20647;-85
2022/06/29 06:50:45;;;;;;;1.20;0.70;;;21.60;1.00;;;;;;4995241;28;20297;-85
2022/06/29 06:53:13;;;;;;;1.10;0.60;;;21.70;99.90;;;;;;4996406;28;20253;-83
2022/06/29 06:55:39;;;;;;;1.37;0.67;;;22.30;99.90;;;;;;4996291;28;20173;-85
2022/06/29 06:58:04;;;;;;;2.43;0.60;;;22.20;99.90;;;;;;4994730;28;20410;-84
2022/06/29 07:00:30;;;;;;;1.63;0.57;;;22.50;99.90;;;;;;5003530;28;20168;-84
2022/06/29 07:02:56;;;;;;;1.27;0.77;;;23.00;99.90;;;;;;4997590;28;20696;-83
2022/06/29 07:05:21;;;;;;;1.30;0.93;;;23.40;99.90;;;;;;4996309;28;20515;-85
2022/06/29 07:07:47;;;;;;;4.30;1.13;;;23.10;99.90;;;;;;4996180;28;20227;-84
2022/06/29 07:10:12;;;;;;;1.47;0.83;;;23.10;99.90;;;;;;4994925;28;20189;-84
2022/06/29 07:12:38;;;;;;;2.70;0.80;;;23.30;99.90;;;;;;4995314;28;20212;-84
2022/06/29 07:15:04;;;;;;;1.90;0.87;;;22.40;99.90;;;;;;4997250;28;20178;-84
2022/06/29 07:17:29;;;;;;;2.10;0.97;;;22.50;99.90;;;;;;4996397;28;20189;-85
2022/06/29 07:19:55;;;;;;;1.30;0.60;;;23.30;99.90;;;;;;4994739;28;20515;-84
2022/06/29 07:22:20;;;;;;;1.00;0.70;;;23.30;99.90;;;;;;4995761;28;20173;-85
2022/06/29 07:24:46;;;;;;;3.63;1.00;;;23.70;99.90;;;;;;4995682;28;20223;-83
2022/06/29 07:27:12;;;;;;;1.00;0.70;;;24.10;99.90;;;;;;4995378;28;20169;-84
2022/06/29 07:29:38;;;;;;;3.70;1.00;;;24.70;99.90;;;;;;4994938;28;20175;-83
2022/06/29 07:32:04;;;;;;;0.90;0.67;;;24.10;99.90;;;;;;4995648;28;20527;-85
2022/06/29 07:34:29;;;;;;;1.13;0.40;;;23.50;99.90;;;;;;4995535;28;20293;-85
2022/06/29 07:36:55;;;;;;;1.27;0.70;;;24.60;99.90;;;;;;4995555;28;20938;-85
2022/06/29 07:39:20;;;;;;;1.13;0.57;;;25.40;99.90;;;;;;4995242;28;20223;-90
2022/06/29 07:41:46;;;;;;;0.97;0.30;;;25.10;96.20;;;;;;4995079;28;20203;-83
2022/06/29 07:44:11;;;;;;;1.00;0.70;;;25.70;99.50;;;;;;4995407;28;20696;-84
2022/06/29 07:46:37;;;;;;;2.07;0.63;;;26.10;88.10;;;;;;4995405;28;20250;-85
2022/06/29 07:49:03;;;;;;;2.30;1.17;;;26.40;46.10;;;;;;4995333;28;20168;-89
2022/06/29 07:51:28;;;;;;;0.90;0.70;;;26.70;36.80;;;;;;4995371;28;20179;-86
2022/06/29 07:53:54;;;;;;;1.60;0.77;;;27.10;20.40;;;;;;4993908;28;20176;-83
2022/06/29 07:56:19;;;;;;;2.07;0.73;;;28.00;13.20;;;;;;4993867;28;20543;-86
2022/06/29 07:58:45;;;;;;;1.40;0.40;;;26.60;5.70;;;;;;4995331;28;20207;-88
2022/06/29 08:01:12;;;;;;;3.67;1.20;;;27.20;9.20;;;;;;4995115;28;20194;-84
2022/06/29 08:03:37;;;;;;;4.07;1.20;;;27.10;9.20;;;;;;4995122;28;20175;-85
2022/06/29 08:06:05;;;;;;;1.17;0.73;;;25.40;11.40;;;;;;4996177;28;20491;-84
2022/06/29 08:08:31;;;;;;;1.87;0.87;;;25.70;24.10;;;;;;4995268;28;20176;-85
2022/06/29 08:10:56;;;;;;;0.87;0.70;;;24.80;27.80;;;;;;4994772;28;20521;-84
2022/06/29 08:13:22;;;;;;;1.13;0.57;;;25.10;39.60;;;;;;4995065;28;20451;-84
2022/06/29 08:15:48;;;;;;;2.63;0.53;;;26.30;25.90;;;;;;4996343;28;20183;-84
2022/06/29 08:18:14;;;;;;;1.73;0.77;;;26.60;13.60;;;;;;4994838;28;20179;-82
2022/06/29 08:20:40;;;;;;;1.23;0.50;;;27.10;13.60;;;;;;4994760;28;20179;-82
2022/06/29 08:23:06;;;;;;;1.80;0.70;;;28.00;2.70;;;;;;4994778;28;20419;-83
2022/06/29 08:25:31;;;;;;;1.33;0.40;;;27.60;1.00;;;;;;4993804;28;20211;-84
2022/06/29 08:27:57;;;;;;;2.57;0.50;;;28.10;1.00;;;;;;4993101;28;20656;-83
2022/06/29 08:30:23;;;;;;;1.23;1.00;;;28.70;1.00;;;;;;4994502;28;20195;-85
2022/06/29 08:32:49;;;;;;;1.43;1.03;;;29.10;1.00;;;;;;4994587;28;20175;-85
2022/06/29 08:35:21;;;;;;;1.27;0.70;;;29.10;1.00;;;;;;4993198;28;20167;-83
2022/06/29 08:37:47;;;;;;;2.33;0.67;;;29.20;1.00;;;;;;4994386;28;20607;-82
2022/06/29 08:40:15;;;;;;;1.43;0.50;;;30.10;1.00;;;;;;4994282;28;20545;-85
2022/06/29 08:42:42;;;;;;;3.17;0.60;;;30.50;1.00;;;;;;4994019;28;20411;-84
2022/06/29 08:45:09;;;;;;;1.60;0.47;;;31.00;1.00;;;;;;4994294;28;20963;-84
2022/06/29 08:47:35;;;;;;;3.10;1.27;;;30.50;1.00;;;;;;4994212;28;20425;-84
2022/06/29 08:50:09;;;;;;;1.63;0.80;;;31.20;1.00;;;;;;4992939;28;20966;-82
2022/06/29 08:52:35;;;;;;;1.13;0.33;;;29.90;1.00;;;;;;4994254;28;20410;-84
2022/06/29 08:55:04;;;;;;;1.37;0.50;;;29.50;1.00;;;;;;4994262;28;20413;-83
2022/06/29 08:57:30;;;;;;;1.63;0.70;;;29.80;1.00;;;;;;4994001;28;20498;-83
2022/06/29 08:59:56;;;;;;;0.90;0.50;;;29.40;1.00;;;;;;4994151;28;20406;-83
2022/06/29 09:02:22;;;;;;;2.20;1.03;;;29.50;1.00;;;;;;4993959;28;20415;-82
2022/06/29 09:04:48;;;;;;;2.27;0.90;;;29.70;1.00;;;;;;4993891;28;21009;-83
2022/06/29 09:07:13;;;;;;;2.43;0.60;;;30.00;1.00;;;;;;4994037;28;20171;-85
2022/06/29 09:10:11;;;;;;;1.60;0.47;;;29.90;1.00;;;;;;4992725;28;20927;-82
2022/06/29 09:12:38;;;;;;;1.20;0.77;;;29.80;1.00;;;;;;4992388;28;20267;-83
2022/06/29 09:15:08;;;;;;;0.97;0.70;;;29.90;1.00;;;;;;4993803;28;20419;-84
2022/06/29 09:17:35;;;;;;;1.43;0.40;;;30.20;1.00;;;;;;4993812;28;20419;-85
2022/06/29 09:20:02;;;;;;;1.27;0.70;;;31.20;1.00;;;;;;4993825;28;20422;-84
2022/06/29 09:22:29;;;;;;;2.00;0.63;;;31.00;1.00;;;;;;4993881;28;20419;-85
2022/06/29 09:24:54;;;;;;;2.00;0.77;;;31.40;1.00;;;;;;4993585;28;20478;-85
2022/06/29 09:27:24;;;;;;;1.00;0.70;;;29.30;1.00;;;;;;4993340;28;20514;-85
2022/06/29 09:29:49;;;;;;;0.90;0.57;;;30.00;1.00;;;;;;4993697;28;20267;-86
2022/06/29 09:32:16;;;;;;;2.20;0.80;;;30.30;1.00;;;;;;4992354;28;20498;-86
2022/06/29 09:34:43;;;;;;;2.90;1.10;;;29.60;1.00;;;;;;4993674;28;20178;-86
2022/06/29 09:37:20;;;;;;;1.40;0.77;;;29.70;1.00;;;;;;4999503;28;20769;-84
2022/06/29 09:39:47;;;;;;;1.70;1.00;;;28.60;1.00;;;;;;4998825;28;20478;-85
2022/06/29 09:42:18;;;;;;;1.40;1.00;;;29.50;1.00;;;;;;5000069;28;20406;-83
2022/06/29 09:44:45;;;;;;;1.63;0.97;;;28.70;1.00;;;;;;5000372;28;20566;-86
2022/06/29 09:47:15;;;;;;;1.50;0.60;;;27.40;1.00;;;;;;4998960;28;20427;-84
2022/06/29 09:49:43;;;;;;;0.80;0.60;;;27.80;1.00;;;;;;5000171;28;20498;-82
2022/06/29 09:52:09;;;;;;;0.90;0.70;;;28.30;1.00;;;;;;4998922;28;20858;-85
2022/06/29 09:54:48;;;;;;;1.60;0.80;;;27.80;1.00;;;;;;5000098;28;20452;-83
2022/06/29 09:57:19;;;;;;;1.17;0.73;;;27.50;1.00;;;;;;4998475;28;20426;-85
2022/06/29 10:02:38;;;;;;;1.83;0.67;;;28.90;1.00;;;;;;4999927;28;20465;-82
2022/06/29 10:05:05;;;;;;;1.47;1.20;;;28.50;1.00;;;;;;4999792;28;20470;-84
2022/06/29 10:07:31;;;;;;;1.97;1.00;;;28.50;1.00;;;;;;4999878;28;20419;-85
2022/06/29 10:09:58;;;;;;;1.13;0.80;;;28.40;1.00;;;;;;4999900;28;20434;-84
2022/06/29 10:15:36;;;;;;;1.63;1.13;;;26.90;1.00;;;;;;5000368;28;20505;-88
2022/06/29 10:18:06;;;;;;;1.00;0.70;;;26.40;1.00;;;;;;5000593;28;20418;-90
2022/06/29 10:20:48;;;;;;;3.33;0.90;;;26.60;1.00;;;;;;5000303;28;20422;-89
2022/06/29 10:23:46;;;;;;;1.20;0.60;;;28.60;1.00;;;;;;4999165;28;20508;-89
2022/06/29 10:26:35;;;;;;;2.00;0.97;;;29.60;1.00;;;;;;5000443;28;20457;-85
2022/06/29 10:29:10;;;;;;;1.10;0.60;;;29.40;1.00;;;;;;5000276;28;20411;-88
2022/06/29 10:31:51;;;;;;;1.77;0.90;;;28.60;1.00;;;;;;4998410;28;20426;-88
2022/06/29 10:34:32;;;;;;;2.77;1.10;;;28.50;1.00;;;;;;4998842;28;20446;-88
2022/06/29 10:37:07;;;;;;;3.63;1.60;;;28.80;1.00;;;;;;4998829;28;20414;-90
2022/06/29 10:39:50;;;;;;;1.33;1.00;;;30.60;1.00;;;;;;4999463;28;20493;-88
2022/06/29 10:45:24;;;;;;;2.10;0.67;;;30.60;1.00;;;;;;5000139;28;20918;-90
2022/06/29 10:47:56;;;;;;;1.70;0.80;;;29.60;1.00;;;;;;4999477;28;20411;-89
2022/06/29 10:50:31;;;;;;;2.93;0.63;;;29.00;1.00;;;;;;4996345;28;20458;-93
2022/06/29 10:53:01;;;;;;;1.37;0.80;;;29.90;1.00;;;;;;4997989;28;20451;-91
2022/06/29 10:55:28;;;;;;;2.10;0.97;;;29.90;1.00;;;;;;4996977;28;20481;-90
2022/06/29 10:57:54;;;;;;;1.37;0.93;;;29.20;1.00;;;;;;4997969;28;20419;-86
2022/06/29 11:00:24;;;;;;;1.43;1.00;;;31.00;1.00;;;;;;4996107;28;20514;-86
2022/06/29 11:02:50;;;;;;;1.00;0.73;;;31.70;1.00;;;;;;4995515;28;20183;-87
2022/06/29 11:05:15;;;;;;;1.37;1.13;;;32.10;1.00;;;;;;4994829;28;20474;-87
2022/06/29 11:13:24;;;;;;;0.90;0.40;;;31.10;1.00;;;;;;4996668;28;20455;-90
2022/06/29 11:15:54;;;;;;;4.10;0.60;;;32.20;1.00;;;;;;4995379;28;20175;-89
2022/06/29 11:18:24;;;;;;;0.90;0.60;;;31.70;1.00;;;;;;4995098;28;20435;-89
2022/06/29 11:20:51;;;;;;;1.20;0.57;;;31.60;1.00;;;;;;4996239;28;20423;-87
2022/06/29 11:23:27;;;;;;;2.63;0.43;;;30.60;1.00;;;;;;4996348;28;20927;-88
2022/06/29 11:25:56;;;;;;;1.00;0.67;;;30.00;1.00;;;;;;4995643;28;20458;-87
2022/06/29 11:28:25;;;;;;;1.30;0.73;;;30.00;1.00;;;;;;4995817;28;20781;-87
2022/06/29 11:31:00;;;;;;;1.50;0.70;;;31.60;1.00;;;;;;4995773;28;20417;-85
2022/06/29 11:33:28;;;;;;;1.83;0.60;;;31.70;1.00;;;;;;4994429;28;20926;-86
2022/06/29 11:35:54;;;;;;;1.73;0.80;;;31.70;1.00;;;;;;4995554;28;20414;-85
2022/06/29 11:38:20;;;;;;;0.70;0.50;;;32.20;1.00;;;;;;4995726;28;20427;-88
2022/06/29 11:40:49;;;;;;;1.50;0.63;;;32.50;1.00;;;;;;4995148;28;20470;-87
2022/06/29 11:43:15;;;;;;;0.80;0.50;;;32.50;1.00;;;;;;4995591;28;20217;-88
2022/06/29 11:45:46;;;;;;;1.53;1.40;;;32.50;1.00;;;;;;4995643;28;20470;-88
2022/06/29 11:48:23;;;;;;;0.70;0.40;;;32.20;1.00;;;;;;4994204;28;20430;-87
2022/06/29 11:50:54;;;;;;;1.10;0.70;;;32.20;1.00;;;;;;4995564;28;20423;-88
2022/06/29 11:53:47;;;;;;;0.70;0.53;;;32.30;1.00;;;;;;4995782;28;20460;-90
2022/06/29 11:56:18;;;;;;;2.00;0.80;;;32.80;1.00;;;;;;4993700;28;20517;-86
2022/06/29 11:58:50;;;;;;;1.30;0.77;;;33.20;1.00;;;;;;4995076;28;20414;-84
2022/06/29 12:01:20;;;;;;;1.33;0.53;;;33.20;1.00;;;;;;4994501;28;20430;-87
2022/06/29 12:03:53;;;;;;;1.70;0.77;;;32.90;1.00;;;;;;4995111;28;20418;-86
2022/06/29 12:06:23;;;;;;;1.47;1.30;;;32.60;1.00;;;;;;4994325;28;20962;-87
2022/06/29 12:08:49;;;;;;;1.50;0.93;;;;;;;;;;4995651;28;20442;-88
2022/06/29 12:11:15;;;;;;;2.83;0.97;;;33.50;1.00;;;;;;4994714;28;20450;-86
2022/06/29 12:13:41;;;;;;;1.97;1.10;;;33.40;1.00;;;;;;4994949;28;20438;-88
2022/06/29 12:16:06;;;;;;;1.00;0.90;;;33.20;1.00;;;;;;4993758;28;20443;-87
2022/06/29 12:18:32;;;;;;;1.43;0.90;;;32.60;1.00;;;;;;4993709;28;20558;-86
2022/06/29 12:20:58;;;;;;;1.00;0.90;;;32.80;1.00;;;;;;4993563;28;20183;-89
2022/06/29 12:23:23;;;;;;;1.30;0.70;;;33.40;1.00;;;;;;4994944;28;20171;-87
2022/06/29 12:25:49;;;;;;;2.10;1.00;;;33.30;1.00;;;;;;4994589;28;20208;-87
2022/06/29 12:28:14;;;;;;;0.70;0.70;;;32.60;1.00;;;;;;4994792;28;20171;-86
2022/06/29 12:30:58;;;;;;;1.63;0.70;;;33.00;1.00;;;;;;4993645;28;20266;-87
2022/06/29 12:33:24;;;;;;;1.20;0.73;;;33.90;1.00;;;;;;4994103;28;20229;-86
2022/06/29 12:35:50;;;;;;;0.90;0.60;;;33.80;1.00;;;;;;4995604;28;20808;-90
2022/06/29 12:38:16;;;;;;;2.13;0.97;;;31.70;1.00;;;;;;4994852;28;20263;-88
2022/06/29 12:40:44;;;;;;;0.70;0.43;;;30.60;1.00;;;;;;4994018;28;21005;-88
2022/06/29 12:43:09;;;;;;;1.60;1.17;;;31.20;1.00;;;;;;4994561;28;20259;-90
2022/06/29 12:45:35;;;;;;;1.33;0.83;;;30.20;1.00;;;;;;4994502;28;20561;-88
2022/06/29 12:48:01;;;;;;;1.20;0.40;;;30.30;1.00;;;;;;4994422;28;20199;-87
2022/06/29 12:50:27;;;;;;;2.50;0.77;;;30.90;1.00;;;;;;4994540;28;20179;-87
2022/06/29 12:52:52;;;;;;;1.17;0.83;;;31.20;1.00;;;;;;4993297;28;20183;-88
2022/06/29 12:55:21;;;;;;;1.37;0.80;;;31.00;1.00;;;;;;4992912;28;20266;-88
2022/06/29 12:57:48;;;;;;;3.03;0.90;;;31.10;1.00;;;;;;4994432;28;20653;-88
2022/06/29 13:00:15;;;;;;;2.33;1.00;;;31.00;1.00;;;;;;4994311;28;20415;-88
2022/06/29 13:02:42;;;;;;;1.00;0.50;;;30.70;1.00;;;;;;4994383;28;20435;-89
2022/06/29 13:05:08;;;;;;;0.60;0.50;;;31.60;1.00;;;;;;4994052;28;20466;-88
2022/06/29 13:07:34;;;;;;;1.13;0.80;;;30.90;1.00;;;;;;4993994;28;20418;-88
2022/06/29 13:09:59;;;;;;;1.10;0.60;;;31.70;1.00;;;;;;4992511;28;20430;-85
2022/06/29 13:12:26;;;;;;;2.27;0.70;;;31.40;1.00;;;;;;4992781;28;20573;-87